Terminal Aerodrome Forecast
Issued by NWS

Home | Current Version | Previous Version | Graphics & Text | Print | Product List | Glossary On
Versions: 1 2 3 4 5 6 7 8 9 10 11 12 13 14 15 16 17 18 19 20 21 22 23 24 25 26
000
FTUS45 KGGW 241142
TAFOLF
TAF
KOLF 241142Z 2412/2512 00000KT P6SM SKC
     FM241800 33011KT P6SM FEW090
     FM250200 36007KT P6SM SCT090
     FM250500 VRB03KT P6SM FEW100=

USA.gov is the U.S. government's official web portal to all federal, state and local government web resources and services.